createdAt,value
2019-04-04T00:00:30.308Z,75.38
2019-04-04T00:02:59.770Z,75.30
2019-04-04T00:05:29.257Z,73.96
2019-04-04T00:08:00.088Z,74.02
2019-04-04T00:10:29.731Z,74.54
2019-04-04T00:12:59.243Z,74.41
2019-04-04T00:15:28.891Z,74.92
2019-04-04T00:17:58.471Z,74.65
2019-04-04T00:20:27.938Z,75.14
2019-04-04T00:22:57.197Z,75.39
2019-04-04T00:25:26.783Z,74.72
2019-04-04T00:27:56.412Z,74.97
2019-04-04T00:30:26.091Z,75.24
2019-04-04T00:32:55.652Z,75.27
2019-04-04T00:35:25.259Z,74.86
2019-04-04T00:37:54.562Z,75.00
2019-04-04T00:40:23.742Z,74.87
2019-04-04T00:42:53.204Z,74.86
2019-04-04T00:45:22.672Z,74.79
2019-04-04T00:47:52.222Z,74.77
2019-04-04T00:50:21.930Z,74.74
2019-04-04T00:52:51.516Z,74.70
2019-04-04T00:55:20.961Z,74.24
2019-04-04T00:57:50.752Z,74.58
2019-04-04T01:00:23.826Z,75.23
2019-04-04T01:02:53.181Z,75.15
2019-04-04T01:05:23.937Z,74.64
2019-04-04T01:07:53.086Z,74.46
2019-04-04T01:10:22.563Z,74.88
2019-04-04T01:12:52.706Z,75.00
2019-04-04T01:15:22.214Z,75.31
2019-04-04T01:17:51.719Z,75.15
2019-04-04T01:20:21.153Z,74.68
2019-04-04T01:22:55.753Z,74.16
2019-04-04T01:25:23.546Z,73.82
2019-04-04T01:27:53.138Z,74.29
2019-04-04T01:30:22.607Z,74.29
2019-04-04T01:32:52.125Z,74.19
2019-04-04T01:35:22.789Z,74.24
2019-04-04T01:37:52.884Z,74.36
2019-04-04T01:40:22.497Z,75.05
2019-04-04T01:42:51.945Z,74.21
2019-04-04T01:45:21.421Z,74.73
2019-04-04T01:47:50.884Z,75.05
2019-04-04T01:50:22.449Z,74.16
2019-04-04T01:52:53.160Z,74.51
2019-04-04T01:55:24.323Z,74.78
2019-04-04T01:57:53.843Z,74.43
2019-04-04T02:00:23.303Z,74.39
2019-04-04T02:02:52.830Z,73.73
2019-04-04T02:05:22.437Z,73.72
2019-04-04T02:07:51.966Z,74.50
2019-04-04T02:10:21.600Z,75.01
2019-04-04T02:12:51.355Z,74.30
2019-04-04T02:15:20.992Z,74.20
2019-04-04T02:17:51.059Z,74.62
2019-04-04T02:20:21.597Z,74.70
2019-04-04T02:22:51.464Z,74.91
2019-04-04T02:25:20.952Z,74.58
2019-04-04T02:27:50.486Z,74.79
2019-04-04T02:30:20.067Z,74.88
2019-04-04T02:32:49.510Z,75.56
2019-04-04T02:35:19.087Z,75.48
2019-04-04T02:37:48.030Z,75.48
2019-04-04T02:40:17.239Z,75.33
2019-04-04T02:42:46.687Z,75.15
2019-04-04T02:45:16.259Z,75.11
2019-04-04T02:47:50.323Z,74.61
2019-04-04T02:50:17.402Z,75.33
2019-04-04T02:52:47.102Z,74.86
2019-04-04T02:55:16.682Z,75.35
2019-04-04T02:57:48.414Z,75.27
2019-04-04T03:00:18.075Z,75.71
2019-04-04T03:02:47.672Z,75.13
2019-04-04T03:05:19.315Z,74.26
2019-04-04T03:07:48.435Z,74.76
2019-04-04T03:10:17.980Z,75.00
2019-04-04T03:12:47.593Z,74.57
2019-04-04T03:15:17.201Z,74.41
2019-04-04T03:17:46.816Z,74.90
2019-04-04T03:20:17.196Z,74.56
2019-04-04T03:22:47.015Z,73.76
2019-04-04T03:25:16.607Z,74.45
2019-04-04T03:27:46.230Z,73.80
2019-04-04T03:30:17.315Z,73.09
2019-04-04T03:32:52.634Z,73.49
2019-04-04T03:35:25.807Z,73.99
2019-04-04T03:37:50.221Z,74.32
2019-04-04T03:40:19.748Z,74.74
2019-04-04T03:42:49.235Z,74.74
2019-04-04T03:45:18.764Z,74.82
2019-04-04T03:47:48.379Z,74.72
2019-04-04T03:50:17.895Z,74.49
2019-04-04T03:52:47.562Z,73.77
2019-04-04T03:55:17.093Z,74.50
2019-04-04T03:57:46.791Z,74.52
2019-04-04T04:00:19.378Z,74.98
2019-04-04T04:02:50.132Z,74.93
2019-04-04T04:05:23.100Z,74.63
2019-04-04T04:07:52.703Z,74.63
2019-04-04T04:10:21.939Z,74.25
2019-04-04T04:12:51.606Z,74.25
2019-04-04T04:15:21.306Z,74.32
2019-04-04T04:17:50.856Z,74.40
2019-04-04T04:20:22.166Z,74.96
2019-04-04T04:22:51.784Z,75.96
2019-04-04T04:25:21.322Z,75.03
2019-04-04T04:27:51.172Z,75.67
2019-04-04T04:30:20.611Z,75.42
2019-04-04T04:32:55.688Z,74.32
2019-04-04T04:35:21.593Z,74.61
2019-04-04T04:37:53.454Z,74.00
2019-04-04T04:40:22.393Z,74.52
2019-04-04T04:42:51.956Z,73.70
2019-04-04T04:45:21.246Z,73.94
2019-04-04T04:47:50.964Z,74.39
2019-04-04T04:50:21.324Z,73.23
2019-04-04T04:52:51.271Z,73.13
2019-04-04T04:55:24.529Z,73.96
2019-04-04T04:57:56.337Z,74.15
2019-04-04T05:00:27.536Z,73.44
2019-04-04T05:02:56.299Z,73.72
2019-04-04T05:05:25.591Z,74.00
2019-04-04T05:07:55.242Z,74.05
2019-04-04T05:10:24.247Z,74.01
2019-04-04T05:12:53.879Z,73.87
2019-04-04T05:15:23.026Z,73.77
2019-04-04T05:17:52.321Z,73.10
2019-04-04T05:20:24.871Z,73.57
2019-04-04T05:22:52.799Z,73.22
2019-04-04T05:25:22.396Z,72.45
2019-04-04T05:27:51.980Z,73.22
2019-04-04T05:30:21.457Z,73.15
2019-04-04T05:32:52.419Z,72.86
2019-04-04T05:35:22.067Z,73.36
2019-04-04T05:37:51.311Z,72.52
2019-04-04T05:40:23.145Z,72.22
2019-04-04T05:42:52.288Z,72.83
2019-04-04T05:45:21.858Z,72.31
2019-04-04T05:47:54.975Z,71.97
2019-04-04T05:50:22.644Z,72.84
2019-04-04T05:52:52.024Z,73.26
2019-04-04T05:55:21.507Z,73.22
2019-04-04T05:57:51.613Z,72.72
2019-04-04T06:00:21.488Z,73.55
2019-04-04T06:02:50.962Z,73.89
2019-04-04T06:05:20.543Z,73.72
2019-04-04T06:07:50.039Z,73.92
2019-04-04T06:10:19.565Z,75.24
2019-04-04T06:12:49.204Z,74.49
2019-04-04T06:15:18.750Z,74.03
2019-04-04T06:17:48.348Z,73.59
2019-04-04T06:20:19.750Z,73.50
2019-04-04T06:22:50.073Z,73.32
2019-04-04T06:25:20.595Z,72.45
2019-04-04T06:27:50.146Z,71.78
2019-04-04T06:30:20.239Z,71.37
2019-04-04T06:32:50.153Z,71.67
2019-04-04T06:35:19.627Z,71.62
2019-04-04T06:37:51.336Z,71.73
2019-04-04T06:40:20.481Z,71.62
2019-04-04T06:42:49.965Z,71.66
2019-04-04T06:45:19.514Z,71.74
2019-04-04T06:47:49.225Z,71.94
2019-04-04T06:50:18.780Z,72.11
2019-04-04T06:52:50.420Z,71.28
2019-04-04T06:55:19.415Z,70.98
2019-04-04T06:57:51.284Z,71.46
2019-04-04T07:00:20.085Z,71.74
2019-04-04T07:02:49.742Z,72.34
2019-04-04T07:05:19.212Z,71.79
2019-04-04T07:07:48.731Z,71.69
2019-04-04T07:10:20.957Z,72.14
2019-04-04T07:12:49.667Z,72.44
2019-04-04T07:15:19.338Z,72.75
2019-04-04T07:17:50.870Z,73.20
2019-04-04T07:20:20.499Z,72.97
2019-04-04T07:22:49.974Z,72.57
2019-04-04T07:25:19.454Z,72.52
2019-04-04T07:27:48.984Z,72.68
2019-04-04T07:30:18.599Z,71.94
2019-04-04T07:32:48.066Z,72.32
2019-04-04T07:35:17.725Z,72.52
2019-04-04T07:37:48.402Z,72.17
2019-04-04T07:40:20.298Z,71.70
2019-04-04T07:42:49.191Z,71.20
2019-04-04T07:45:20.680Z,71.17
2019-04-04T07:47:51.896Z,70.66
2019-04-04T07:50:21.294Z,71.42
2019-04-04T07:52:50.663Z,71.13
2019-04-04T07:55:20.233Z,71.13
2019-04-04T07:57:51.247Z,70.90
2019-04-04T08:00:21.231Z,71.32
2019-04-04T08:02:50.777Z,71.06
2019-04-04T08:05:20.267Z,71.34
2019-04-04T08:07:49.858Z,71.38
2019-04-04T08:10:20.798Z,71.12
2019-04-04T08:12:50.651Z,70.32
2019-04-04T08:15:20.179Z,70.78
2019-04-04T08:17:49.705Z,70.55
2019-04-04T08:20:19.348Z,70.33
2019-04-04T08:22:48.803Z,70.56
2019-04-04T08:25:18.123Z,70.03
2019-04-04T08:27:47.651Z,69.56
2019-04-04T08:30:17.265Z,69.05
2019-04-04T08:32:46.861Z,68.80
2019-04-04T08:35:16.090Z,69.76
2019-04-04T08:37:46.448Z,69.57
2019-04-04T08:40:16.062Z,68.93
2019-04-04T08:42:45.662Z,69.10
2019-04-04T08:45:15.341Z,68.70
2019-04-04T08:47:44.903Z,68.53
2019-04-04T08:50:14.535Z,68.32
2019-04-04T08:52:43.720Z,68.31
2019-04-04T08:55:13.461Z,68.38
2019-04-04T08:57:43.565Z,68.79
2019-04-04T09:00:13.602Z,68.58
2019-04-04T09:02:43.061Z,68.82
2019-04-04T09:05:13.071Z,68.17
2019-04-04T09:07:42.584Z,66.81
2019-04-04T09:10:12.619Z,66.27
2019-04-04T09:12:42.205Z,66.39
2019-04-04T09:15:12.326Z,66.64
2019-04-04T09:17:41.895Z,66.67
2019-04-04T09:20:11.257Z,66.19
2019-04-04T09:22:41.273Z,66.11
2019-04-04T09:25:12.302Z,66.46
2019-04-04T09:27:42.044Z,65.81
2019-04-04T09:30:13.620Z,65.62
2019-04-04T09:32:42.978Z,65.44
2019-04-04T09:35:12.503Z,64.33
2019-04-04T09:37:42.097Z,64.79
2019-04-04T09:40:11.899Z,65.33
2019-04-04T09:42:41.467Z,64.31
2019-04-04T09:45:12.474Z,64.17
2019-04-04T09:47:42.109Z,62.76
2019-04-04T09:50:12.036Z,63.05
2019-04-04T09:52:41.633Z,64.31
2019-04-04T09:55:11.187Z,64.51
2019-04-04T09:57:40.749Z,64.48
2019-04-04T10:00:12.843Z,63.84
2019-04-04T10:02:42.578Z,64.04
2019-04-04T10:05:13.773Z,64.60
2019-04-04T10:07:43.037Z,64.01
2019-04-04T10:10:13.199Z,62.27
2019-04-04T10:12:42.536Z,62.59
2019-04-04T10:15:13.919Z,61.84
2019-04-04T10:17:44.111Z,62.26
2019-04-04T10:20:14.313Z,62.94
2019-04-04T10:22:43.764Z,63.28
2019-04-04T10:25:14.960Z,63.46
2019-04-04T10:27:44.567Z,62.91
2019-04-04T10:30:14.385Z,63.12
2019-04-04T10:32:44.286Z,64.23
2019-04-04T10:35:13.788Z,64.31
2019-04-04T10:37:43.250Z,63.72
2019-04-04T10:40:13.780Z,62.89
2019-04-04T10:42:43.305Z,62.98
2019-04-04T10:45:12.893Z,63.03
2019-04-04T10:47:42.173Z,63.25
2019-04-04T10:50:11.904Z,63.27
2019-04-04T10:52:41.362Z,62.52
2019-04-04T10:55:11.047Z,62.95
2019-04-04T10:57:40.714Z,62.97
2019-04-04T11:00:12.224Z,62.82
2019-04-04T11:02:42.346Z,62.61
2019-04-04T11:05:12.348Z,62.27
2019-04-04T11:07:41.890Z,63.35
2019-04-04T11:10:11.692Z,62.00
2019-04-04T11:12:41.320Z,62.58
2019-04-04T11:15:11.002Z,63.54
2019-04-04T11:17:40.559Z,62.89
2019-04-04T11:20:10.393Z,62.24
2019-04-04T11:22:39.842Z,62.17
2019-04-04T11:25:09.759Z,61.77
2019-04-04T11:27:39.217Z,62.08
2019-04-04T11:30:09.856Z,62.06
2019-04-04T11:32:39.189Z,61.53
2019-04-04T11:35:09.205Z,61.68
2019-04-04T11:37:38.673Z,61.05
2019-04-04T11:40:08.358Z,61.39
2019-04-04T11:42:37.972Z,61.88
2019-04-04T11:45:07.643Z,62.61
2019-04-04T11:47:37.551Z,62.10
2019-04-04T11:50:08.095Z,61.25
2019-04-04T11:52:37.593Z,61.17
2019-04-04T11:55:07.511Z,61.54
2019-04-04T11:57:37.190Z,62.01
2019-04-04T12:00:12.333Z,61.82
2019-04-04T12:02:41.788Z,62.00
2019-04-04T12:05:11.515Z,62.72
2019-04-04T12:07:40.961Z,62.95
2019-04-04T12:10:10.892Z,62.89
2019-04-04T12:12:40.569Z,63.03
2019-04-04T12:15:10.329Z,62.64
2019-04-04T12:17:39.768Z,63.13
2019-04-04T12:20:09.883Z,63.11
2019-04-04T12:22:41.371Z,62.62
2019-04-04T12:25:11.185Z,63.13
2019-04-04T12:27:40.697Z,63.35
2019-04-04T12:30:11.156Z,62.78
2019-04-04T12:32:40.610Z,63.22
2019-04-04T12:35:10.568Z,64.15
2019-04-04T12:37:40.140Z,63.99
2019-04-04T12:40:20.446Z,63.60
2019-04-04T12:42:42.080Z,62.80
2019-04-04T12:45:12.106Z,63.36
2019-04-04T12:47:41.553Z,63.13
2019-04-04T12:50:11.547Z,63.36
2019-04-04T12:52:40.998Z,63.10
2019-04-04T12:55:10.259Z,62.67
2019-04-04T12:57:39.679Z,62.49
2019-04-04T13:00:11.076Z,63.66
2019-04-04T13:02:40.605Z,63.99
2019-04-04T13:05:10.716Z,63.70
2019-04-04T13:07:42.071Z,65.28
2019-04-04T13:10:12.433Z,65.84
2019-04-04T13:12:41.907Z,66.39
2019-04-04T13:15:11.829Z,66.10
2019-04-04T13:17:41.393Z,66.45
2019-04-04T13:20:11.727Z,66.18
2019-04-04T13:22:41.159Z,66.73
2019-04-04T13:25:10.984Z,66.69
2019-04-04T13:27:40.516Z,68.84
2019-04-04T13:30:12.998Z,70.07
2019-04-04T13:32:42.511Z,71.35
2019-04-04T13:35:12.457Z,72.02
2019-04-04T13:37:41.873Z,72.52
2019-04-04T13:40:14.081Z,71.74
2019-04-04T13:42:43.634Z,71.78
2019-04-04T13:45:13.436Z,71.51
2019-04-04T13:47:43.060Z,71.35
2019-04-04T13:50:13.131Z,71.06
2019-04-04T13:52:42.589Z,69.65
2019-04-04T13:55:12.185Z,70.42
2019-04-04T13:57:41.664Z,70.74
2019-04-04T14:00:11.969Z,70.04
2019-04-04T14:02:41.574Z,70.41
2019-04-04T14:05:14.290Z,70.27
2019-04-04T14:07:44.124Z,69.72
2019-04-04T14:10:16.972Z,70.19
2019-04-04T14:12:45.129Z,69.40
2019-04-04T14:15:14.560Z,69.47
2019-04-04T14:17:44.327Z,69.37
2019-04-04T14:20:13.754Z,69.57
2019-04-04T14:22:45.015Z,69.19
2019-04-04T14:25:14.086Z,69.66
2019-04-04T14:27:43.620Z,68.41
2019-04-04T14:30:13.925Z,69.23
2019-04-04T14:32:43.828Z,68.52
2019-04-04T14:35:13.497Z,68.33
2019-04-04T14:37:43.093Z,67.88
2019-04-04T14:40:12.773Z,67.13
2019-04-04T14:42:41.961Z,66.47
2019-04-04T14:45:11.754Z,66.50
2019-04-04T14:47:41.750Z,66.47
2019-04-04T14:50:11.413Z,66.17
2019-04-04T14:52:41.184Z,65.62
2019-04-04T14:55:11.168Z,63.44
2019-04-04T14:57:40.871Z,63.23
2019-04-04T15:00:10.782Z,63.78
2019-04-04T15:02:40.408Z,63.14
2019-04-04T15:05:09.970Z,63.61
2019-04-04T15:07:39.490Z,63.61
2019-04-04T15:10:09.635Z,63.40
2019-04-04T15:12:39.060Z,63.49
2019-04-04T15:15:09.179Z,63.04
2019-04-04T15:17:38.749Z,63.80
2019-04-04T15:20:10.252Z,63.80
2019-04-04T15:22:39.693Z,63.87
2019-04-04T15:25:09.666Z,63.89
2019-04-04T15:27:39.171Z,63.55
2019-04-04T15:30:09.258Z,63.48
2019-04-04T15:32:38.861Z,64.42
2019-04-04T15:35:09.319Z,65.03
2019-04-04T15:37:38.786Z,64.81
2019-04-04T15:40:08.254Z,64.45
2019-04-04T15:42:37.772Z,64.36
2019-04-04T15:45:07.640Z,64.92
2019-04-04T15:47:37.124Z,64.78
2019-04-04T15:50:07.884Z,64.71
2019-04-04T15:52:37.381Z,64.83
2019-04-04T15:55:07.662Z,64.88
2019-04-04T15:57:37.364Z,64.88
2019-04-04T16:00:07.950Z,64.50
2019-04-04T16:02:37.580Z,64.84
2019-04-04T16:05:08.174Z,64.86
2019-04-04T16:07:37.761Z,64.98
2019-04-04T16:10:07.872Z,65.70
2019-04-04T16:12:41.979Z,65.58
2019-04-04T16:15:14.125Z,65.41
2019-04-04T16:17:43.711Z,65.69
2019-04-04T16:20:14.858Z,65.97
2019-04-04T16:22:44.200Z,65.97
2019-04-04T16:25:13.970Z,66.07
2019-04-04T16:27:44.302Z,66.19
2019-04-04T16:30:14.171Z,66.99
2019-04-04T16:32:43.653Z,67.04
2019-04-04T16:35:13.314Z,66.77
2019-04-04T16:37:42.652Z,66.65
2019-04-04T16:40:12.479Z,66.53
2019-04-04T16:42:41.664Z,67.21
2019-04-04T16:45:11.465Z,67.20
2019-04-04T16:47:41.192Z,67.25
2019-04-04T16:50:11.283Z,66.96
2019-04-04T16:52:40.811Z,66.39
2019-04-04T16:55:10.665Z,66.43
2019-04-04T16:57:43.175Z,66.32
2019-04-04T17:00:13.492Z,66.10
2019-04-04T17:02:42.982Z,66.02
2019-04-04T17:05:12.977Z,66.79
2019-04-04T17:07:42.562Z,65.98
2019-04-04T17:10:12.284Z,65.19
2019-04-04T17:12:41.495Z,66.94
2019-04-04T17:15:11.822Z,66.73
2019-04-04T17:17:41.477Z,66.92
2019-04-04T17:20:10.687Z,67.59
2019-04-04T17:22:40.160Z,67.13
2019-04-04T17:25:09.776Z,66.89
2019-04-04T17:27:39.306Z,66.79
2019-04-04T17:30:09.417Z,66.64
2019-04-04T17:32:38.872Z,66.03
2019-04-04T17:35:08.663Z,67.14
2019-04-04T17:37:38.230Z,67.70
2019-04-04T17:40:09.463Z,67.24
2019-04-04T17:42:39.026Z,66.48
2019-04-04T17:45:09.398Z,66.50
2019-04-04T17:47:38.882Z,66.81
2019-04-04T17:50:13.268Z,67.80
2019-04-04T17:52:42.457Z,69.07
2019-04-04T17:55:12.334Z,68.15
2019-04-04T17:57:42.022Z,68.15
2019-04-04T18:00:12.938Z,68.58
2019-04-04T18:02:42.581Z,68.66
2019-04-04T18:05:12.557Z,69.29
2019-04-04T18:07:42.086Z,69.47
2019-04-04T18:10:12.374Z,69.23
2019-04-04T18:12:41.835Z,67.82
2019-04-04T18:15:11.651Z,67.59
2019-04-04T18:17:41.106Z,67.97
2019-04-04T18:20:11.485Z,68.90
2019-04-04T18:22:41.007Z,68.59
2019-04-04T18:25:10.876Z,68.61
2019-04-04T18:27:42.542Z,68.34
2019-04-04T18:30:11.968Z,67.55
2019-04-04T18:32:41.229Z,67.05
2019-04-04T18:35:11.667Z,67.10
2019-04-04T18:37:41.585Z,66.94
2019-04-04T18:40:11.770Z,67.39
2019-04-04T18:42:52.556Z,67.88
2019-04-04T18:45:13.933Z,68.17
2019-04-04T18:47:43.399Z,68.26
2019-04-04T18:50:13.523Z,68.42
2019-04-04T18:52:43.076Z,67.59
2019-04-04T18:55:19.746Z,67.75
2019-04-04T18:57:43.524Z,67.09
2019-04-04T19:00:13.927Z,67.05
2019-04-04T19:02:43.664Z,67.49
2019-04-04T19:05:13.657Z,66.96
2019-04-04T19:07:43.290Z,67.49
2019-04-04T19:10:12.554Z,67.50
2019-04-04T19:12:42.145Z,67.34
2019-04-04T19:15:11.884Z,67.58
2019-04-04T19:17:41.407Z,68.08
2019-04-04T19:20:11.613Z,68.05
2019-04-04T19:22:41.159Z,68.60
2019-04-04T19:25:13.653Z,69.23
2019-04-04T19:27:42.340Z,69.50
2019-04-04T19:30:12.110Z,69.27
2019-04-04T19:32:41.363Z,69.26
2019-04-04T19:35:11.487Z,68.09
2019-04-04T19:37:41.107Z,69.10
2019-04-04T19:40:11.133Z,69.08
2019-04-04T19:42:40.788Z,68.95
2019-04-04T19:45:10.647Z,69.69
2019-04-04T19:47:39.891Z,69.12
2019-04-04T19:50:11.193Z,69.14
2019-04-04T19:52:40.756Z,69.51
2019-04-04T19:55:10.902Z,69.55
2019-04-04T19:57:40.264Z,68.95
2019-04-04T20:00:10.899Z,69.35
2019-04-04T20:02:40.427Z,69.04
2019-04-04T20:05:10.444Z,69.47
2019-04-04T20:07:39.690Z,69.07
2019-04-04T20:10:09.586Z,69.36
2019-04-04T20:12:39.105Z,68.65
2019-04-04T20:15:08.815Z,68.74
2019-04-04T20:17:38.112Z,68.60
2019-04-04T20:20:08.676Z,69.21
2019-04-04T20:22:38.093Z,69.95
2019-04-04T20:25:07.729Z,69.71
2019-04-04T20:27:37.580Z,69.59
2019-04-04T20:30:09.223Z,69.52
2019-04-04T20:32:39.471Z,69.68
2019-04-04T20:35:09.099Z,69.21
2019-04-04T20:37:38.580Z,69.93
2019-04-04T20:40:08.320Z,70.27
2019-04-04T20:42:37.837Z,70.02
2019-04-04T20:45:07.654Z,69.99
2019-04-04T20:47:37.229Z,70.42
2019-04-04T20:50:07.917Z,71.01
2019-04-04T20:52:38.969Z,71.25
2019-04-04T20:55:08.181Z,70.77
2019-04-04T20:57:37.638Z,71.12
2019-04-04T21:00:07.833Z,71.35
2019-04-04T21:02:37.289Z,70.65
2019-04-04T21:05:07.735Z,70.07
2019-04-04T21:07:37.611Z,70.34
2019-04-04T21:10:07.429Z,71.08
2019-04-04T21:12:37.003Z,70.75
2019-04-04T21:15:07.239Z,70.72
2019-04-04T21:17:37.739Z,71.00
2019-04-04T21:20:07.550Z,71.39
2019-04-04T21:22:37.031Z,71.30
2019-04-04T21:25:09.904Z,71.76
2019-04-04T21:27:39.404Z,71.42
2019-04-04T21:30:09.309Z,71.67
2019-04-04T21:32:38.636Z,71.83
2019-04-04T21:35:08.448Z,71.14
2019-04-04T21:37:37.881Z,70.69
2019-04-04T21:40:07.587Z,70.17
2019-04-04T21:42:37.091Z,70.29
2019-04-04T21:45:07.404Z,70.04
2019-04-04T21:47:36.666Z,69.87
2019-04-04T21:50:06.215Z,70.42
2019-04-04T21:52:36.520Z,70.70
2019-04-04T21:55:07.041Z,70.39
2019-04-04T21:57:36.559Z,70.39
2019-04-04T22:00:07.897Z,70.84
2019-04-04T22:02:37.577Z,70.92
2019-04-04T22:05:07.051Z,70.59
2019-04-04T22:07:36.670Z,71.31
2019-04-04T22:10:07.575Z,71.50
2019-04-04T22:12:37.144Z,70.93
2019-04-04T22:15:08.522Z,70.31
2019-04-04T22:17:38.056Z,70.31
2019-04-04T22:20:07.947Z,70.53
2019-04-04T22:22:37.702Z,70.02
2019-04-04T22:25:07.253Z,69.81
2019-04-04T22:27:37.019Z,69.82
2019-04-04T22:30:08.095Z,69.39
2019-04-04T22:32:37.656Z,69.65
2019-04-04T22:35:07.562Z,70.63
2019-04-04T22:37:37.096Z,70.76
2019-04-04T22:40:07.239Z,70.57
2019-04-04T22:42:36.856Z,71.05
2019-04-04T22:45:09.059Z,71.49
2019-04-04T22:47:38.561Z,71.28
2019-04-04T22:50:08.147Z,70.07
2019-04-04T22:52:38.513Z,71.05
2019-04-04T22:55:07.813Z,71.12
2019-04-04T22:57:37.144Z,70.06
2019-04-04T23:00:07.842Z,70.49
2019-04-04T23:02:37.264Z,70.56
2019-04-04T23:05:07.241Z,70.01
2019-04-04T23:07:36.866Z,70.25
2019-04-04T23:10:08.497Z,70.66
2019-04-04T23:12:37.853Z,71.28
2019-04-04T23:15:08.360Z,70.90
2019-04-04T23:17:37.407Z,71.38
2019-04-04T23:20:09.294Z,70.98
2019-04-04T23:22:47.017Z,70.62
2019-04-04T23:25:09.252Z,70.49
2019-04-04T23:27:38.830Z,70.82
2019-04-04T23:30:08.169Z,70.95
2019-04-04T23:32:37.709Z,71.36
2019-04-04T23:35:07.935Z,71.60
2019-04-04T23:37:37.482Z,70.64
2019-04-04T23:40:07.277Z,70.14
2019-04-04T23:42:36.769Z,70.43
2019-04-04T23:45:07.885Z,72.43
2019-04-04T23:47:43.337Z,73.80
2019-04-04T23:50:08.757Z,73.87
2019-04-04T23:52:38.266Z,74.37
2019-04-04T23:55:07.972Z,75.05
2019-04-04T23:57:37.518Z,75.27
